sensor_id;sensor_type;location;lat;lon;timestamp;temperature;humidity
48579;DHT22;34357;51.948;6.132;2022-10-22T00:02:23;12.60;93.20
48579;DHT22;34357;51.948;6.132;2022-10-22T00:04:49;12.60;93.30
48579;DHT22;34357;51.948;6.132;2022-10-22T00:07:19;12.70;93.20
48579;DHT22;34357;51.948;6.132;2022-10-22T00:09:45;12.60;93.20
48579;DHT22;34357;51.948;6.132;2022-10-22T00:12:13;12.50;93.10
48579;DHT22;34357;51.948;6.132;2022-10-22T00:14:39;12.40;93.10
48579;DHT22;34357;51.948;6.132;2022-10-22T00:17:05;12.40;93.10
48579;DHT22;34357;51.948;6.132;2022-10-22T00:19:31;12.30;93.10
48579;DHT22;34357;51.948;6.132;2022-10-22T00:21:57;12.20;93.20
48579;DHT22;34357;51.948;6.132;2022-10-22T00:24:24;12.10;93.20
48579;DHT22;34357;51.948;6.132;2022-10-22T00:26:49;12.10;93.20
48579;DHT22;34357;51.948;6.132;2022-10-22T00:29:15;12.00;93.30
48579;DHT22;34357;51.948;6.132;2022-10-22T00:31:44;12.10;93.40
48579;DHT22;34357;51.948;6.132;2022-10-22T00:34:16;12.00;93.40
48579;DHT22;34357;51.948;6.132;2022-10-22T00:36:42;12.00;93.50
48579;DHT22;34357;51.948;6.132;2022-10-22T00:39:08;12.00;93.50
48579;DHT22;34357;51.948;6.132;2022-10-22T00:41:34;11.90;93.50
48579;DHT22;34357;51.948;6.132;2022-10-22T00:44:03;11.90;93.50
48579;DHT22;34357;51.948;6.132;2022-10-22T00:46:29;11.90;93.60
48579;DHT22;34357;51.948;6.132;2022-10-22T00:48:57;11.90;93.60
48579;DHT22;34357;51.948;6.132;2022-10-22T00:51:26;11.80;93.60
48579;DHT22;34357;51.948;6.132;2022-10-22T00:54:00;11.80;93.60
48579;DHT22;34357;51.948;6.132;2022-10-22T00:56:27;11.80;93.60
48579;DHT22;34357;51.948;6.132;2022-10-22T00:58:56;11.80;93.70
48579;DHT22;34357;51.948;6.132;2022-10-22T01:01:28;11.70;93.70
48579;DHT22;34357;51.948;6.132;2022-10-22T01:03:55;11.70;93.70
48579;DHT22;34357;51.948;6.132;2022-10-22T01:06:34;11.70;93.70
48579;DHT22;34357;51.948;6.132;2022-10-22T01:09:36;11.70;93.70
48579;DHT22;34357;51.948;6.132;2022-10-22T01:12:18;11.70;93.70
48579;DHT22;34357;51.948;6.132;2022-10-22T01:26:47;11.60;93.70
48579;DHT22;34357;51.948;6.132;2022-10-22T01:29:23;11.60;93.70
48579;DHT22;34357;51.948;6.132;2022-10-22T01:32:04;11.50;93.60
48579;DHT22;34357;51.948;6.132;2022-10-22T01:34:31;11.40;93.60
48579;DHT22;34357;51.948;6.132;2022-10-22T01:36:59;11.40;93.60
48579;DHT22;34357;51.948;6.132;2022-10-22T01:39:27;11.30;93.60
48579;DHT22;34357;51.948;6.132;2022-10-22T01:41:55;11.30;93.60
48579;DHT22;34357;51.948;6.132;2022-10-22T01:44:29;11.30;93.70
48579;DHT22;34357;51.948;6.132;2022-10-22T01:47:06;11.20;93.70
48579;DHT22;34357;51.948;6.132;2022-10-22T02:00:57;11.30;94.10
48579;DHT22;34357;51.948;6.132;2022-10-22T02:03:28;11.50;94.30
48579;DHT22;34357;51.948;6.132;2022-10-22T02:06:04;11.60;94.30
48579;DHT22;34357;51.948;6.132;2022-10-22T02:08:34;11.90;94.60
48579;DHT22;34357;51.948;6.132;2022-10-22T02:11:01;12.00;94.60
48579;DHT22;34357;51.948;6.132;2022-10-22T02:13:36;12.00;94.60
48579;DHT22;34357;51.948;6.132;2022-10-22T02:16:06;12.10;94.70
48579;DHT22;34357;51.948;6.132;2022-10-22T02:18:36;12.20;94.70
48579;DHT22;34357;51.948;6.132;2022-10-22T02:21:03;12.20;94.80
48579;DHT22;34357;51.948;6.132;2022-10-22T02:23:30;12.10;94.70
48579;DHT22;34357;51.948;6.132;2022-10-22T02:26:21;12.00;94.60
48579;DHT22;34357;51.948;6.132;2022-10-22T02:28:58;12.10;94.70
48579;DHT22;34357;51.948;6.132;2022-10-22T02:31:30;12.10;94.70
48579;DHT22;34357;51.948;6.132;2022-10-22T02:34:01;12.10;94.80
48579;DHT22;34357;51.948;6.132;2022-10-22T02:36:29;12.20;94.80
48579;DHT22;34357;51.948;6.132;2022-10-22T02:38:56;12.10;94.70
48579;DHT22;34357;51.948;6.132;2022-10-22T02:41:23;12.10;94.70
48579;DHT22;34357;51.948;6.132;2022-10-22T02:43:52;12.00;94.60
48579;DHT22;34357;51.948;6.132;2022-10-22T02:46:18;12.00;94.80
48579;DHT22;34357;51.948;6.132;2022-10-22T02:48:44;12.20;94.90
48579;DHT22;34357;51.948;6.132;2022-10-22T02:51:10;12.20;94.80
48579;DHT22;34357;51.948;6.132;2022-10-22T02:53:35;12.20;94.80
48579;DHT22;34357;51.948;6.132;2022-10-22T02:56:01;12.20;94.70
48579;DHT22;34357;51.948;6.132;2022-10-22T02:58:27;12.10;94.70
48579;DHT22;34357;51.948;6.132;2022-10-22T03:00:52;12.10;94.70
48579;DHT22;34357;51.948;6.132;2022-10-22T03:03:18;12.10;94.80
48579;DHT22;34357;51.948;6.132;2022-10-22T03:05:44;12.00;94.70
48579;DHT22;34357;51.948;6.132;2022-10-22T03:08:10;12.00;94.70
48579;DHT22;34357;51.948;6.132;2022-10-22T03:10:35;11.90;94.70
48579;DHT22;34357;51.948;6.132;2022-10-22T03:13:01;11.90;94.60
48579;DHT22;34357;51.948;6.132;2022-10-22T03:15:27;11.90;94.70
48579;DHT22;34357;51.948;6.132;2022-10-22T03:17:52;11.90;94.80
48579;DHT22;34357;51.948;6.132;2022-10-22T03:20:18;11.90;94.80
48579;DHT22;34357;51.948;6.132;2022-10-22T03:22:44;12.10;94.90
48579;DHT22;34357;51.948;6.132;2022-10-22T03:25:13;12.10;94.90
48579;DHT22;34357;51.948;6.132;2022-10-22T03:27:41;12.20;94.90
48579;DHT22;34357;51.948;6.132;2022-10-22T03:30:08;12.40;94.90
48579;DHT22;34357;51.948;6.132;2022-10-22T03:32:34;12.40;94.80
48579;DHT22;34357;51.948;6.132;2022-10-22T03:34:59;12.30;94.70
48579;DHT22;34357;51.948;6.132;2022-10-22T03:37:26;12.40;94.70
48579;DHT22;34357;51.948;6.132;2022-10-22T03:39:53;12.40;94.60
48579;DHT22;34357;51.948;6.132;2022-10-22T03:42:20;12.50;94.50
48579;DHT22;34357;51.948;6.132;2022-10-22T03:44:46;12.60;94.40
48579;DHT22;34357;51.948;6.132;2022-10-22T03:47:12;12.60;94.30
48579;DHT22;34357;51.948;6.132;2022-10-22T03:49:37;12.60;94.10
48579;DHT22;34357;51.948;6.132;2022-10-22T03:52:13;12.60;94.00
48579;DHT22;34357;51.948;6.132;2022-10-22T03:54:39;12.50;94.00
48579;DHT22;34357;51.948;6.132;2022-10-22T03:57:07;12.50;93.80
48579;DHT22;34357;51.948;6.132;2022-10-22T03:59:41;12.60;93.90
48579;DHT22;34357;51.948;6.132;2022-10-22T04:02:07;12.50;93.90
48579;DHT22;34357;51.948;6.132;2022-10-22T04:04:34;12.50;93.80
48579;DHT22;34357;51.948;6.132;2022-10-22T04:06:59;12.40;93.70
48579;DHT22;34357;51.948;6.132;2022-10-22T04:09:25;12.40;93.70
48579;DHT22;34357;51.948;6.132;2022-10-22T04:11:51;12.40;93.70
48579;DHT22;34357;51.948;6.132;2022-10-22T04:14:17;12.30;93.60
48579;DHT22;34357;51.948;6.132;2022-10-22T04:16:42;12.40;93.80
48579;DHT22;34357;51.948;6.132;2022-10-22T04:19:08;12.40;93.80
48579;DHT22;34357;51.948;6.132;2022-10-22T04:21:34;12.40;93.80
48579;DHT22;34357;51.948;6.132;2022-10-22T04:24:00;12.40;93.80
48579;DHT22;34357;51.948;6.132;2022-10-22T04:26:26;12.50;93.80
48579;DHT22;34357;51.948;6.132;2022-10-22T04:28:52;12.40;93.70
48579;DHT22;34357;51.948;6.132;2022-10-22T04:31:23;12.50;93.70
48579;DHT22;34357;51.948;6.132;2022-10-22T04:33:57;12.50;93.50
48579;DHT22;34357;51.948;6.132;2022-10-22T04:36:24;12.40;93.40
48579;DHT22;34357;51.948;6.132;2022-10-22T04:38:55;12.50;93.40
48579;DHT22;34357;51.948;6.132;2022-10-22T04:41:23;12.40;93.30
48579;DHT22;34357;51.948;6.132;2022-10-22T04:43:49;12.40;93.40
48579;DHT22;34357;51.948;6.132;2022-10-22T04:46:16;12.30;93.30
48579;DHT22;34357;51.948;6.132;2022-10-22T04:48:43;12.40;93.30
48579;DHT22;34357;51.948;6.132;2022-10-22T04:51:11;12.30;93.30
48579;DHT22;34357;51.948;6.132;2022-10-22T04:53:37;12.30;93.40
48579;DHT22;34357;51.948;6.132;2022-10-22T04:56:09;12.20;93.40
48579;DHT22;34357;51.948;6.132;2022-10-22T04:58:36;12.20;93.60
48579;DHT22;34357;51.948;6.132;2022-10-22T05:01:22;12.10;93.60
48579;DHT22;34357;51.948;6.132;2022-10-22T05:03:52;12.10;93.80
48579;DHT22;34357;51.948;6.132;2022-10-22T05:06:18;12.00;93.70
48579;DHT22;34357;51.948;6.132;2022-10-22T05:08:45;12.00;93.80
48579;DHT22;34357;51.948;6.132;2022-10-22T05:11:15;12.00;93.80
48579;DHT22;34357;51.948;6.132;2022-10-22T05:13:41;12.00;93.90
48579;DHT22;34357;51.948;6.132;2022-10-22T05:16:07;11.90;93.90
48579;DHT22;34357;51.948;6.132;2022-10-22T05:18:38;12.00;94.10
48579;DHT22;34357;51.948;6.132;2022-10-22T05:21:07;12.10;94.10
48579;DHT22;34357;51.948;6.132;2022-10-22T05:23:33;12.00;94.10
48579;DHT22;34357;51.948;6.132;2022-10-22T05:26:03;12.20;94.30
48579;DHT22;34357;51.948;6.132;2022-10-22T05:28:29;12.20;94.30
48579;DHT22;34357;51.948;6.132;2022-10-22T05:30:56;12.20;94.30
48579;DHT22;34357;51.948;6.132;2022-10-22T05:33:22;12.20;94.30
48579;DHT22;34357;51.948;6.132;2022-10-22T05:35:49;12.20;94.40
48579;DHT22;34357;51.948;6.132;2022-10-22T05:38:15;12.30;94.40
48579;DHT22;34357;51.948;6.132;2022-10-22T05:40:41;12.40;94.50
48579;DHT22;34357;51.948;6.132;2022-10-22T05:43:07;12.30;94.40
48579;DHT22;34357;51.948;6.132;2022-10-22T05:45:37;12.40;94.50
48579;DHT22;34357;51.948;6.132;2022-10-22T05:48:03;12.40;94.50
48579;DHT22;34357;51.948;6.132;2022-10-22T05:50:29;12.50;94.50
48579;DHT22;34357;51.948;6.132;2022-10-22T05:52:55;12.50;94.50
48579;DHT22;34357;51.948;6.132;2022-10-22T05:55:20;12.50;94.50
48579;DHT22;34357;51.948;6.132;2022-10-22T05:57:46;12.50;94.50
48579;DHT22;34357;51.948;6.132;2022-10-22T06:00:14;12.60;94.40
48579;DHT22;34357;51.948;6.132;2022-10-22T06:02:40;12.80;94.50
48579;DHT22;34357;51.948;6.132;2022-10-22T06:05:05;12.70;94.30
48579;DHT22;34357;51.948;6.132;2022-10-22T06:07:31;12.70;94.40
48579;DHT22;34357;51.948;6.132;2022-10-22T06:09:58;12.80;94.30
48579;DHT22;34357;51.948;6.132;2022-10-22T06:12:24;12.80;94.30
48579;DHT22;34357;51.948;6.132;2022-10-22T06:14:50;12.80;94.20
48579;DHT22;34357;51.948;6.132;2022-10-22T06:17:15;12.80;94.20
48579;DHT22;34357;51.948;6.132;2022-10-22T06:19:41;12.80;94.10
48579;DHT22;34357;51.948;6.132;2022-10-22T06:22:07;12.80;94.20
48579;DHT22;34357;51.948;6.132;2022-10-22T06:24:32;12.80;94.00
48579;DHT22;34357;51.948;6.132;2022-10-22T06:26:58;12.70;93.90
48579;DHT22;34357;51.948;6.132;2022-10-22T06:29:24;12.80;94.00
48579;DHT22;34357;51.948;6.132;2022-10-22T06:31:50;12.80;94.00
48579;DHT22;34357;51.948;6.132;2022-10-22T06:34:16;12.90;93.90
48579;DHT22;34357;51.948;6.132;2022-10-22T06:36:44;12.90;94.00
48579;DHT22;34357;51.948;6.132;2022-10-22T06:39:11;13.00;93.90
48579;DHT22;34357;51.948;6.132;2022-10-22T06:41:37;13.00;93.90
48579;DHT22;34357;51.948;6.132;2022-10-22T06:44:03;13.10;93.90
48579;DHT22;34357;51.948;6.132;2022-10-22T06:46:29;13.10;93.80
48579;DHT22;34357;51.948;6.132;2022-10-22T06:49:00;13.20;93.70
48579;DHT22;34357;51.948;6.132;2022-10-22T06:51:28;13.30;93.60
48579;DHT22;34357;51.948;6.132;2022-10-22T06:53:57;13.40;93.50
48579;DHT22;34357;51.948;6.132;2022-10-22T06:56:26;13.50;93.30
48579;DHT22;34357;51.948;6.132;2022-10-22T06:58:55;13.50;93.10
48579;DHT22;34357;51.948;6.132;2022-10-22T07:01:27;13.50;92.80
48579;DHT22;34357;51.948;6.132;2022-10-22T07:03:53;13.50;92.60
48579;DHT22;34357;51.948;6.132;2022-10-22T07:06:20;13.60;92.50
48579;DHT22;34357;51.948;6.132;2022-10-22T07:08:46;13.50;92.50
48579;DHT22;34357;51.948;6.132;2022-10-22T07:11:23;13.60;92.60
48579;DHT22;34357;51.948;6.132;2022-10-22T07:13:50;13.50;92.30
48579;DHT22;34357;51.948;6.132;2022-10-22T07:16:17;13.50;92.40
48579;DHT22;34357;51.948;6.132;2022-10-22T07:18:43;13.50;92.30
48579;DHT22;34357;51.948;6.132;2022-10-22T07:21:11;13.60;92.30
48579;DHT22;34357;51.948;6.132;2022-10-22T07:23:37;13.70;92.10
48579;DHT22;34357;51.948;6.132;2022-10-22T07:26:04;13.80;92.00
48579;DHT22;34357;51.948;6.132;2022-10-22T07:28:32;14.10;91.90
48579;DHT22;34357;51.948;6.132;2022-10-22T07:30:58;14.30;91.50
48579;DHT22;34357;51.948;6.132;2022-10-22T07:33:25;14.50;90.90
48579;DHT22;34357;51.948;6.132;2022-10-22T07:35:57;14.60;89.90
48579;DHT22;34357;51.948;6.132;2022-10-22T07:38:23;14.60;89.50
48579;DHT22;34357;51.948;6.132;2022-10-22T07:40:49;14.50;89.70
48579;DHT22;34357;51.948;6.132;2022-10-22T07:43:15;14.40;89.90
48579;DHT22;34357;51.948;6.132;2022-10-22T07:45:40;14.40;90.00
48579;DHT22;34357;51.948;6.132;2022-10-22T07:48:06;14.30;90.40
48579;DHT22;34357;51.948;6.132;2022-10-22T07:50:32;14.30;90.50
48579;DHT22;34357;51.948;6.132;2022-10-22T07:52:58;14.30;90.60
48579;DHT22;34357;51.948;6.132;2022-10-22T07:55:24;14.40;90.70
48579;DHT22;34357;51.948;6.132;2022-10-22T07:57:50;14.40;90.60
48579;DHT22;34357;51.948;6.132;2022-10-22T08:00:16;14.40;90.50
48579;DHT22;34357;51.948;6.132;2022-10-22T08:02:44;14.40;90.40
48579;DHT22;34357;51.948;6.132;2022-10-22T08:05:10;14.50;90.60
48579;DHT22;34357;51.948;6.132;2022-10-22T08:07:38;14.40;90.40
48579;DHT22;34357;51.948;6.132;2022-10-22T08:10:03;14.50;90.30
48579;DHT22;34357;51.948;6.132;2022-10-22T08:12:29;14.50;90.20
48579;DHT22;34357;51.948;6.132;2022-10-22T08:14:55;14.50;90.20
48579;DHT22;34357;51.948;6.132;2022-10-22T08:17:21;14.70;90.30
48579;DHT22;34357;51.948;6.132;2022-10-22T08:19:46;14.60;89.90
48579;DHT22;34357;51.948;6.132;2022-10-22T08:22:12;14.70;90.10
48579;DHT22;34357;51.948;6.132;2022-10-22T08:24:38;14.70;89.50
48579;DHT22;34357;51.948;6.132;2022-10-22T08:27:03;14.70;89.50
48579;DHT22;34357;51.948;6.132;2022-10-22T08:29:29;14.70;89.70
48579;DHT22;34357;51.948;6.132;2022-10-22T08:31:55;14.80;89.60
48579;DHT22;34357;51.948;6.132;2022-10-22T08:34:20;14.90;89.60
48579;DHT22;34357;51.948;6.132;2022-10-22T08:36:46;14.90;89.00
48579;DHT22;34357;51.948;6.132;2022-10-22T08:39:12;15.00;89.00
48579;DHT22;34357;51.948;6.132;2022-10-22T08:49:53;15.50;87.40
48579;DHT22;34357;51.948;6.132;2022-10-22T08:52:21;15.80;87.10
48579;DHT22;34357;51.948;6.132;2022-10-22T08:54:55;15.90;86.10
48579;DHT22;34357;51.948;6.132;2022-10-22T08:57:41;16.10;85.90
48579;DHT22;34357;51.948;6.132;2022-10-22T09:03:02;15.90;85.80
48579;DHT22;34357;51.948;6.132;2022-10-22T09:08:19;16.00;85.80
48579;DHT22;34357;51.948;6.132;2022-10-22T09:10:49;16.00;85.80
48579;DHT22;34357;51.948;6.132;2022-10-22T09:13:19;16.00;85.60
48579;DHT22;34357;51.948;6.132;2022-10-22T09:15:53;16.10;85.30
48579;DHT22;34357;51.948;6.132;2022-10-22T09:18:42;16.20;85.60
48579;DHT22;34357;51.948;6.132;2022-10-22T09:21:33;16.10;85.80
48579;DHT22;34357;51.948;6.132;2022-10-22T09:24:27;16.10;85.70
48579;DHT22;34357;51.948;6.132;2022-10-22T09:26:55;16.00;85.50
48579;DHT22;34357;51.948;6.132;2022-10-22T09:29:27;15.90;85.90
48579;DHT22;34357;51.948;6.132;2022-10-22T09:31:53;15.90;86.30
48579;DHT22;34357;51.948;6.132;2022-10-22T09:34:20;16.00;86.00
48579;DHT22;34357;51.948;6.132;2022-10-22T09:36:46;15.90;85.80
48579;DHT22;34357;51.948;6.132;2022-10-22T09:39:31;16.00;85.70
48579;DHT22;34357;51.948;6.132;2022-10-22T09:41:57;16.00;85.50
48579;DHT22;34357;51.948;6.132;2022-10-22T09:44:23;16.20;85.40
48579;DHT22;34357;51.948;6.132;2022-10-22T09:46:49;16.20;85.10
48579;DHT22;34357;51.948;6.132;2022-10-22T09:49:17;16.10;84.90
48579;DHT22;34357;51.948;6.132;2022-10-22T09:51:57;16.20;85.60
48579;DHT22;34357;51.948;6.132;2022-10-22T09:54:39;16.10;85.30
48579;DHT22;34357;51.948;6.132;2022-10-22T09:57:21;16.00;85.80
48579;DHT22;34357;51.948;6.132;2022-10-22T09:59:49;15.90;86.10
48579;DHT22;34357;51.948;6.132;2022-10-22T10:02:26;15.90;86.70
48579;DHT22;34357;51.948;6.132;2022-10-22T10:04:54;15.80;86.60
48579;DHT22;34357;51.948;6.132;2022-10-22T10:07:24;15.80;87.00
48579;DHT22;34357;51.948;6.132;2022-10-22T10:09:51;15.80;87.10
48579;DHT22;34357;51.948;6.132;2022-10-22T10:12:26;15.80;87.30
48579;DHT22;34357;51.948;6.132;2022-10-22T10:17:44;15.90;88.20
48579;DHT22;34357;51.948;6.132;2022-10-22T10:29:09;15.60;88.60
48579;DHT22;34357;51.948;6.132;2022-10-22T10:34:35;15.40;90.10
48579;DHT22;34357;51.948;6.132;2022-10-22T10:37:21;15.30;90.60
48579;DHT22;34357;51.948;6.132;2022-10-22T10:42:42;15.40;90.80
48579;DHT22;34357;51.948;6.132;2022-10-22T10:53:34;15.80;90.90
48579;DHT22;34357;51.948;6.132;2022-10-22T10:59:06;15.90;90.00
48579;DHT22;34357;51.948;6.132;2022-10-22T11:02:30;15.90;89.90
48579;DHT22;34357;51.948;6.132;2022-10-22T11:07:35;16.00;89.40
48579;DHT22;34357;51.948;6.132;2022-10-22T11:10:31;16.00;89.10
48579;DHT22;34357;51.948;6.132;2022-10-22T11:18:42;16.20;89.10
48579;DHT22;34357;51.948;6.132;2022-10-22T11:23:53;16.30;88.70
48579;DHT22;34357;51.948;6.132;2022-10-22T11:26:44;16.40;88.60
48579;DHT22;34357;51.948;6.132;2022-10-22T11:29:16;16.30;87.70
48579;DHT22;34357;51.948;6.132;2022-10-22T11:31:44;16.40;87.90
48579;DHT22;34357;51.948;6.132;2022-10-22T11:36:45;16.70;87.00
48579;DHT22;34357;51.948;6.132;2022-10-22T11:39:33;16.70;85.60
48579;DHT22;34357;51.948;6.132;2022-10-22T11:42:05;16.80;86.10
48579;DHT22;34357;51.948;6.132;2022-10-22T11:44:45;17.00;85.80
48579;DHT22;34357;51.948;6.132;2022-10-22T11:47:24;17.00;84.80
48579;DHT22;34357;51.948;6.132;2022-10-22T11:50:23;17.20;84.50
48579;DHT22;34357;51.948;6.132;2022-10-22T12:01:17;17.20;83.70
48579;DHT22;34357;51.948;6.132;2022-10-22T12:04:15;17.30;82.40
48579;DHT22;34357;51.948;6.132;2022-10-22T12:06:55;17.50;81.10
48579;DHT22;34357;51.948;6.132;2022-10-22T12:09:22;17.40;78.50
48579;DHT22;34357;51.948;6.132;2022-10-22T12:11:50;17.40;77.60
48579;DHT22;34357;51.948;6.132;2022-10-22T12:14:24;17.40;78.80
48579;DHT22;34357;51.948;6.132;2022-10-22T12:16:55;17.40;78.70
48579;DHT22;34357;51.948;6.132;2022-10-22T12:21:53;17.30;79.60
48579;DHT22;34357;51.948;6.132;2022-10-22T12:24:21;17.30;78.70
48579;DHT22;34357;51.948;6.132;2022-10-22T12:26:47;17.40;79.40
48579;DHT22;34357;51.948;6.132;2022-10-22T12:29:19;17.40;79.20
48579;DHT22;34357;51.948;6.132;2022-10-22T12:31:46;17.60;79.30
48579;DHT22;34357;51.948;6.132;2022-10-22T12:34:14;17.90;79.30
48579;DHT22;34357;51.948;6.132;2022-10-22T12:36:40;18.20;77.20
48579;DHT22;34357;51.948;6.132;2022-10-22T12:39:13;18.10;76.40
48579;DHT22;34357;51.948;6.132;2022-10-22T12:41:39;17.90;76.30
48579;DHT22;34357;51.948;6.132;2022-10-22T12:44:05;17.70;77.10
48579;DHT22;34357;51.948;6.132;2022-10-22T12:46:35;17.60;78.10
48579;DHT22;34357;51.948;6.132;2022-10-22T12:49:07;17.50;78.30
48579;DHT22;34357;51.948;6.132;2022-10-22T12:51:33;17.50;78.90
48579;DHT22;34357;51.948;6.132;2022-10-22T12:54:25;17.40;79.20
48579;DHT22;34357;51.948;6.132;2022-10-22T12:56:53;17.10;79.50
48579;DHT22;34357;51.948;6.132;2022-10-22T12:59:34;17.10;80.00
48579;DHT22;34357;51.948;6.132;2022-10-22T13:02:00;17.00;80.60
48579;DHT22;34357;51.948;6.132;2022-10-22T13:04:38;17.00;80.50
48579;DHT22;34357;51.948;6.132;2022-10-22T13:09:59;17.00;81.70
48579;DHT22;34357;51.948;6.132;2022-10-22T13:12:26;17.00;81.90
48579;DHT22;34357;51.948;6.132;2022-10-22T13:14:52;17.10;81.10
48579;DHT22;34357;51.948;6.132;2022-10-22T13:17:35;17.20;81.40
48579;DHT22;34357;51.948;6.132;2022-10-22T13:20:03;17.40;81.40
48579;DHT22;34357;51.948;6.132;2022-10-22T13:22:37;17.40;80.60
48579;DHT22;34357;51.948;6.132;2022-10-22T13:27:51;17.40;80.30
48579;DHT22;34357;51.948;6.132;2022-10-22T13:30:30;17.40;79.40
48579;DHT22;34357;51.948;6.132;2022-10-22T13:32:57;17.30;80.90
48579;DHT22;34357;51.948;6.132;2022-10-22T13:35:26;17.20;81.70
48579;DHT22;34357;51.948;6.132;2022-10-22T13:37:52;17.10;81.40
48579;DHT22;34357;51.948;6.132;2022-10-22T13:40:18;17.10;81.80
48579;DHT22;34357;51.948;6.132;2022-10-22T13:42:44;17.00;81.30
48579;DHT22;34357;51.948;6.132;2022-10-22T13:45:11;17.10;81.70
48579;DHT22;34357;51.948;6.132;2022-10-22T13:47:37;17.20;81.50
48579;DHT22;34357;51.948;6.132;2022-10-22T13:50:11;17.30;82.10
48579;DHT22;34357;51.948;6.132;2022-10-22T13:52:43;17.30;81.90
48579;DHT22;34357;51.948;6.132;2022-10-22T13:55:22;17.20;80.60
48579;DHT22;34357;51.948;6.132;2022-10-22T13:58:02;17.20;80.40
48579;DHT22;34357;51.948;6.132;2022-10-22T14:00:31;17.20;81.40
48579;DHT22;34357;51.948;6.132;2022-10-22T14:02:58;17.20;80.70
48579;DHT22;34357;51.948;6.132;2022-10-22T14:05:24;17.20;80.30
48579;DHT22;34357;51.948;6.132;2022-10-22T14:07:50;17.10;80.80
48579;DHT22;34357;51.948;6.132;2022-10-22T14:10:22;17.20;80.60
48579;DHT22;34357;51.948;6.132;2022-10-22T14:12:48;17.20;79.80
48579;DHT22;34357;51.948;6.132;2022-10-22T14:15:17;17.20;80.00
48579;DHT22;34357;51.948;6.132;2022-10-22T14:17:45;17.30;81.20
48579;DHT22;34357;51.948;6.132;2022-10-22T14:20:20;17.40;80.30
48579;DHT22;34357;51.948;6.132;2022-10-22T14:22:47;17.40;79.30
48579;DHT22;34357;51.948;6.132;2022-10-22T14:25:20;17.40;79.80
48579;DHT22;34357;51.948;6.132;2022-10-22T14:27:46;17.50;79.90
48579;DHT22;34357;51.948;6.132;2022-10-22T14:30:14;17.50;80.00
48579;DHT22;34357;51.948;6.132;2022-10-22T14:32:40;17.50;79.70
48579;DHT22;34357;51.948;6.132;2022-10-22T14:35:06;17.50;78.50
48579;DHT22;34357;51.948;6.132;2022-10-22T14:37:31;17.40;77.80
48579;DHT22;34357;51.948;6.132;2022-10-22T14:39:57;17.40;78.20
48579;DHT22;34357;51.948;6.132;2022-10-22T14:42:27;17.40;77.40
48579;DHT22;34357;51.948;6.132;2022-10-22T14:44:52;17.40;77.80
48579;DHT22;34357;51.948;6.132;2022-10-22T14:47:18;17.40;79.30
48579;DHT22;34357;51.948;6.132;2022-10-22T14:49:44;17.30;78.40
48579;DHT22;34357;51.948;6.132;2022-10-22T14:52:10;17.30;79.60
48579;DHT22;34357;51.948;6.132;2022-10-22T14:54:35;17.30;78.20
48579;DHT22;34357;51.948;6.132;2022-10-22T14:57:02;17.30;78.40
48579;DHT22;34357;51.948;6.132;2022-10-22T14:59:28;17.20;79.00
48579;DHT22;34357;51.948;6.132;2022-10-22T15:01:54;17.20;79.20
48579;DHT22;34357;51.948;6.132;2022-10-22T15:04:20;17.10;79.90
48579;DHT22;34357;51.948;6.132;2022-10-22T15:06:45;17.10;79.30
48579;DHT22;34357;51.948;6.132;2022-10-22T15:09:11;17.00;79.60
48579;DHT22;34357;51.948;6.132;2022-10-22T15:11:37;16.90;79.80
48579;DHT22;34357;51.948;6.132;2022-10-22T15:14:02;16.90;79.90
48579;DHT22;34357;51.948;6.132;2022-10-22T15:16:28;16.80;80.20
48579;DHT22;34357;51.948;6.132;2022-10-22T15:18:54;16.80;80.60
48579;DHT22;34357;51.948;6.132;2022-10-22T15:21:21;16.60;80.70
48579;DHT22;34357;51.948;6.132;2022-10-22T15:23:47;16.60;81.20
48579;DHT22;34357;51.948;6.132;2022-10-22T15:26:15;16.60;81.50
48579;DHT22;34357;51.948;6.132;2022-10-22T15:28:41;16.50;81.50
48579;DHT22;34357;51.948;6.132;2022-10-22T15:31:07;16.50;81.70
48579;DHT22;34357;51.948;6.132;2022-10-22T15:33:35;16.40;81.90
48579;DHT22;34357;51.948;6.132;2022-10-22T15:36:12;16.40;82.40
48579;DHT22;34357;51.948;6.132;2022-10-22T15:38:39;16.50;82.50
48579;DHT22;34357;51.948;6.132;2022-10-22T15:41:06;16.50;82.70
48579;DHT22;34357;51.948;6.132;2022-10-22T15:43:34;16.50;82.30
48579;DHT22;34357;51.948;6.132;2022-10-22T15:48:36;16.50;82.80
48579;DHT22;34357;51.948;6.132;2022-10-22T15:51:10;16.50;83.20
48579;DHT22;34357;51.948;6.132;2022-10-22T15:53:36;16.40;83.20
48579;DHT22;34357;51.948;6.132;2022-10-22T15:56:02;16.40;83.20
48579;DHT22;34357;51.948;6.132;2022-10-22T15:58:28;16.30;83.00
48579;DHT22;34357;51.948;6.132;2022-10-22T16:00:54;16.30;83.20
48579;DHT22;34357;51.948;6.132;2022-10-22T16:03:19;16.20;83.50
48579;DHT22;34357;51.948;6.132;2022-10-22T16:05:51;16.20;83.90
48579;DHT22;34357;51.948;6.132;2022-10-22T16:08:21;16.10;84.00
48579;DHT22;34357;51.948;6.132;2022-10-22T16:10:47;16.00;84.30
48579;DHT22;34357;51.948;6.132;2022-10-22T16:13:14;15.90;84.60
48579;DHT22;34357;51.948;6.132;2022-10-22T16:15:40;15.90;84.90
48579;DHT22;34357;51.948;6.132;2022-10-22T16:18:06;15.90;85.20
48579;DHT22;34357;51.948;6.132;2022-10-22T16:20:31;15.90;85.40
48579;DHT22;34357;51.948;6.132;2022-10-22T16:22:57;15.90;85.60
48579;DHT22;34357;51.948;6.132;2022-10-22T16:25:23;15.90;85.80
48579;DHT22;34357;51.948;6.132;2022-10-22T16:27:50;15.80;86.10
48579;DHT22;34357;51.948;6.132;2022-10-22T16:30:16;15.70;86.40
48579;DHT22;34357;51.948;6.132;2022-10-22T16:32:42;15.60;86.40
48579;DHT22;34357;51.948;6.132;2022-10-22T16:35:08;15.60;86.60
48579;DHT22;34357;51.948;6.132;2022-10-22T16:37:34;15.50;86.70
48579;DHT22;34357;51.948;6.132;2022-10-22T16:39:59;15.50;86.80
48579;DHT22;34357;51.948;6.132;2022-10-22T16:42:25;15.40;87.00
48579;DHT22;34357;51.948;6.132;2022-10-22T16:44:51;15.40;87.10
48579;DHT22;34357;51.948;6.132;2022-10-22T16:47:17;15.40;87.20
48579;DHT22;34357;51.948;6.132;2022-10-22T16:49:42;15.30;87.30
48579;DHT22;34357;51.948;6.132;2022-10-22T16:52:08;15.20;87.40
48579;DHT22;34357;51.948;6.132;2022-10-22T16:54:34;15.10;87.60
48579;DHT22;34357;51.948;6.132;2022-10-22T16:56:59;15.00;87.90
48579;DHT22;34357;51.948;6.132;2022-10-22T16:59:25;14.90;88.00
48579;DHT22;34357;51.948;6.132;2022-10-22T17:01:51;14.80;88.30
48579;DHT22;34357;51.948;6.132;2022-10-22T17:04:16;14.70;88.50
48579;DHT22;34357;51.948;6.132;2022-10-22T17:06:42;14.60;88.70
48579;DHT22;34357;51.948;6.132;2022-10-22T17:09:08;14.60;89.00
48579;DHT22;34357;51.948;6.132;2022-10-22T17:11:35;14.50;89.00
48579;DHT22;34357;51.948;6.132;2022-10-22T17:14:01;14.40;89.30
48579;DHT22;34357;51.948;6.132;2022-10-22T17:16:28;14.30;89.60
48579;DHT22;34357;51.948;6.132;2022-10-22T17:18:54;14.30;89.60
48579;DHT22;34357;51.948;6.132;2022-10-22T17:21:21;14.20;89.70